Time;durP1;ratioP1;P1;durP2;ratioP2;P2;SDS_P1;SDS_P2;PMS_P1;PMS_P2;Temp;Humidity;BMP_temperature;BMP_pressure;BME280_temperature;BME280_humidity;BME280_pressure;Samples;Min_cycle;Max_cycle;Signal;HPM_P1;HPM_P2
2021/11/24 00:01:34;;;;;;;49.53;22.33;;;;;;;5.37;72.39;95465.31;5111541;28;20023;-73
2021/11/24 00:04:00;;;;;;;47.70;22.83;;;;;;;5.30;72.26;95456.25;5110188;28;20100;-73
2021/11/24 00:06:25;;;;;;;48.42;22.33;;;;;;;5.33;72.80;95464.66;5110597;28;20030;-73
2021/11/24 00:08:51;;;;;;;47.25;22.27;;;;;;;5.30;72.58;95462.22;5121590;28;20042;-73
2021/11/24 00:11:16;;;;;;;51.40;22.60;;;;;;;5.33;72.63;95462.06;5117229;28;20027;-73
2021/11/24 00:13:42;;;;;;;48.55;22.15;;;;;;;5.31;72.46;95458.72;5130662;28;20042;-73
2021/11/24 00:16:07;;;;;;;49.15;21.73;;;;;;;5.35;72.82;95464.56;5115128;27;20545;-73
2021/11/24 00:18:33;;;;;;;48.88;22.42;;;;;;;5.41;72.66;95460.84;5134882;27;20023;-73
2021/11/24 00:20:59;;;;;;;47.33;21.98;;;;;;;5.44;72.60;95471.81;5100243;27;20031;-73
2021/11/24 00:23:24;;;;;;;51.55;22.70;;;;;;;5.41;72.57;95463.44;5117092;27;20484;-73
2021/11/24 00:25:49;;;;;;;45.33;21.73;;;;;;;5.44;72.25;95464.09;5117911;27;20408;-73
2021/11/24 00:28:15;;;;;;;45.38;19.77;;;;;;;5.52;72.02;95472.25;5117125;27;20408;-73
2021/11/24 00:30:42;;;;;;;48.05;21.35;;;;;;;5.55;72.28;95486.72;5134065;27;20031;-73
2021/11/24 00:33:07;;;;;;;47.97;22.58;;;;;;;5.50;72.31;95470.66;5134628;27;20114;-73
2021/11/24 00:35:33;;;;;;;49.30;24.65;;;;;;;5.45;72.21;95478.63;5134922;27;20066;-73
2021/11/24 00:37:58;;;;;;;46.85;22.10;;;;;;;5.49;72.37;95481.88;5114975;27;20024;-73
2021/11/24 00:40:24;;;;;;;46.25;22.27;;;;;;;5.46;72.40;95474.28;5133143;27;20031;-73
2021/11/24 00:42:49;;;;;;;46.50;22.65;;;;;;;5.43;72.37;95466.72;5114935;27;20056;-73
2021/11/24 00:45:14;;;;;;;46.00;22.30;;;;;;;5.45;72.30;95476.06;5115681;27;20036;-73
2021/11/24 00:47:40;;;;;;;46.42;21.08;;;;;;;5.46;72.59;95476.88;5113995;28;20031;-73
2021/11/24 00:50:06;;;;;;;40.05;19.58;;;;;;;5.51;72.31;95472.31;5115668;27;20104;-73
2021/11/24 00:52:31;;;;;;;49.50;22.00;;;;;;;5.52;72.00;95471.44;5114981;27;20028;-73
2021/11/24 00:54:57;;;;;;;44.05;20.42;;;;;;;5.43;72.04;95470.13;5120551;27;20476;-73
2021/11/24 00:57:23;;;;;;;52.75;23.63;;;;;;;5.39;72.47;95473.78;5114527;27;20019;-73
2021/11/24 00:59:48;;;;;;;47.08;20.77;;;;;;;5.47;72.14;95470.84;5115136;27;20036;-73
2021/11/24 01:02:14;;;;;;;48.63;21.58;;;;;;;5.50;72.17;95470.66;5114988;28;20027;-73
2021/11/24 01:04:40;;;;;;;47.55;22.20;;;;;;;5.52;71.87;95481.75;5114834;28;20114;-73
2021/11/24 01:07:05;;;;;;;49.40;22.00;;;;;;;5.36;71.77;95463.66;5109934;27;20023;-73
2021/11/24 01:09:31;;;;;;;47.33;22.17;;;;;;;5.36;71.77;95459.31;5080237;27;20408;-73
2021/11/24 01:11:56;;;;;;;40.63;20.13;;;;;;;5.36;71.71;95458.50;5104915;28;20031;-72
2021/11/24 01:14:21;;;;;;;43.95;21.02;;;;;;;5.44;71.96;95469.25;5113544;28;20044;-73
2021/11/24 01:16:47;;;;;;;39.05;18.58;;;;;;;5.48;71.94;95475.06;5102999;28;20028;-72
2021/11/24 01:19:12;;;;;;;44.67;20.75;;;;;;;5.40;72.04;95461.75;5120904;27;20400;-72
2021/11/24 01:21:38;;;;;;;44.92;20.80;;;;;;;5.45;71.82;95467.50;5134152;27;20046;-72
2021/11/24 01:24:04;;;;;;;48.50;22.27;;;;;;;5.47;71.75;95473.41;5109479;27;20118;-72
2021/11/24 01:26:29;;;;;;;44.75;20.15;;;;;;;5.46;71.58;95470.00;5113665;28;20036;-73
2021/11/24 01:28:54;;;;;;;47.17;21.48;;;;;;;5.49;71.66;95479.28;5113296;28;20417;-73
2021/11/24 01:31:20;;;;;;;43.70;20.60;;;;;;;5.49;71.69;95468.97;5114325;27;20493;-72
2021/11/24 01:33:46;;;;;;;42.10;20.35;;;;;;;5.49;71.40;95467.25;5114320;27;20102;-73
2021/11/24 01:36:11;;;;;;;44.38;20.92;;;;;;;5.38;71.37;95461.84;5132977;27;20027;-73
2021/11/24 01:38:36;;;;;;;40.28;20.17;;;;;;;5.47;71.22;95470.84;5133451;27;20031;-73
2021/11/24 01:41:02;;;;;;;45.60;20.23;;;;;;;5.40;71.43;95465.16;5133015;27;20027;-73
2021/11/24 01:43:27;;;;;;;41.38;19.92;;;;;;;5.35;71.56;95454.28;5133560;27;20061;-73
2021/11/24 01:45:53;;;;;;;44.60;21.00;;;;;;;5.35;71.67;95465.41;5115484;27;20027;-73
2021/11/24 01:48:18;;;;;;;42.63;20.77;;;;;;;5.36;71.64;95461.06;5131144;27;20031;-74
2021/11/24 01:50:44;;;;;;;44.05;19.50;;;;;;;5.38;71.55;95456.69;5107620;28;20489;-74
2021/11/24 01:53:09;;;;;;;45.95;21.63;;;;;;;5.36;71.66;95463.66;5123657;27;20042;-73
2021/11/24 01:55:35;;;;;;;37.58;18.38;;;;;;;5.28;71.32;95438.28;5095561;28;20043;-74
2021/11/24 01:58:01;;;;;;;42.85;20.25;;;;;;;5.38;71.40;95456.69;5078890;28;20027;-74
2021/11/24 02:00:29;;;;;;;36.33;17.63;;;;;;;5.41;71.56;95455.69;5113590;28;20366;-73
2021/11/24 02:02:54;;;;;;;38.78;19.10;;;;;;;5.44;71.63;95455.53;5112622;28;20198;-74
2021/11/24 02:05:20;;;;;;;40.40;19.17;;;;;;;5.35;71.68;95444.78;5108345;27;20035;-74
2021/11/24 02:07:45;;;;;;;37.35;18.20;;;;;;;5.23;71.55;95429.94;5115894;27;20488;-74
2021/11/24 02:10:11;;;;;;;41.60;20.08;;;;;;;5.38;71.49;95442.06;5114678;27;20477;-74
2021/11/24 02:12:37;;;;;;;37.88;17.90;;;;;;;5.49;71.50;95450.94;5113087;27;20039;-74
2021/11/24 02:15:03;;;;;;;39.97;18.73;;;;;;;5.43;71.42;95443.53;5095084;28;20046;-74
2021/11/24 02:17:28;;;;;;;39.78;19.08;;;;;;;5.47;71.41;95445.06;5112404;28;20027;-74
2021/11/24 02:19:53;;;;;;;37.83;18.40;;;;;;;5.51;71.41;95446.53;5112208;28;20032;-73
2021/11/24 02:22:19;;;;;;;41.15;19.75;;;;;;;5.51;71.37;95447.38;5112876;27;20537;-73
2021/11/24 02:24:44;;;;;;;37.05;18.58;;;;;;;5.49;71.49;95446.66;5114107;27;20084;-73
2021/11/24 02:27:11;;;;;;;41.60;19.92;;;;;;;5.49;71.44;95448.38;5133562;27;20034;-73
2021/11/24 02:29:37;;;;;;;38.83;19.83;;;;;;;5.44;71.15;95450.38;5115695;27;20034;-73
2021/11/24 02:32:03;;;;;;;42.05;20.63;;;;;;;5.33;71.34;95438.06;5131628;27;20098;-73
2021/11/24 02:34:29;;;;;;;43.67;21.48;;;;;;;5.26;71.87;95444.41;5087469;28;20225;-73
2021/11/24 02:36:55;;;;;;;37.92;19.88;;;;;;;5.24;71.92;95446.28;5123446;27;20027;-73
2021/11/24 02:39:20;;;;;;;40.83;20.27;;;;;;;5.27;71.34;95441.78;5114631;27;20061;-73
2021/11/24 02:41:46;;;;;;;37.72;19.88;;;;;;;5.18;71.83;95441.41;5108762;28;20035;-73
2021/11/24 02:44:24;;;;;;;40.35;18.92;;;;;;;5.20;71.58;95434.44;5112032;27;20036;-73
2021/11/24 02:46:50;;;;;;;37.38;19.10;;;;;;;5.24;71.80;95433.38;5111925;28;20394;-73
2021/11/24 02:49:16;;;;;;;40.00;19.42;;;;;;;5.26;71.77;95447.00;5110945;28;20039;-73
2021/11/24 02:51:41;;;;;;;38.95;18.98;;;;;;;5.26;71.86;95441.84;5111389;28;20397;-74
2021/11/24 02:54:07;;;;;;;38.35;19.23;;;;;;;5.21;71.84;95429.22;5112139;27;20038;-72
2021/11/24 02:56:32;;;;;;;36.65;17.73;;;;;;;5.30;71.82;95433.88;5111628;28;20052;-73
2021/11/24 02:58:58;;;;;;;34.85;16.75;;;;;;;5.34;71.53;95439.72;5111526;28;20096;-73
2021/11/24 03:01:23;;;;;;;40.10;18.30;;;;;;;5.34;71.54;95444.84;5111364;28;20027;-74
2021/11/24 03:03:49;;;;;;;31.70;15.68;;;;;;;5.34;71.52;95447.44;5112434;28;20035;-73
2021/11/24 03:06:14;;;;;;;31.13;15.75;;;;;;;5.40;71.59;95446.28;5118268;27;20056;-73
2021/11/24 03:08:40;;;;;;;36.35;18.40;;;;;;;5.35;71.77;95441.38;5115673;27;20399;-74
2021/11/24 03:11:05;;;;;;;41.03;19.60;;;;;;;5.25;72.14;95441.03;5131217;27;20122;-74
2021/11/24 03:13:31;;;;;;;35.95;18.10;;;;;;;5.32;71.81;95452.69;5124904;27;20023;-74
2021/11/24 03:15:56;;;;;;;37.50;19.67;;;;;;;5.31;71.88;95460.47;5110215;28;20035;-74
2021/11/24 03:18:22;;;;;;;42.28;20.25;;;;;;;5.34;71.76;95460.31;5094862;28;20038;-74
2021/11/24 03:20:47;;;;;;;39.25;20.23;;;;;;;5.31;71.73;95458.72;5126192;27;20519;-74
2021/11/24 03:23:13;;;;;;;39.10;20.33;;;;;;;5.33;71.83;95461.25;5101420;28;20420;-74
2021/11/24 03:25:38;;;;;;;40.85;22.25;;;;;;;5.31;71.97;95458.72;5128634;27;20233;-74
2021/11/24 03:28:04;;;;;;;43.35;23.15;;;;;;;5.27;71.61;95459.81;5130581;27;20031;-74
2021/11/24 03:30:29;;;;;;;45.38;22.80;;;;;;;5.27;71.51;95464.13;5110542;27;20058;-74
2021/11/24 03:32:55;;;;;;;45.75;22.38;;;;;;;5.24;72.11;95454.81;5110381;28;20212;-74
2021/11/24 03:35:21;;;;;;;47.92;23.73;;;;;;;5.24;71.74;95467.69;5110284;27;20416;-73
2021/11/24 03:37:47;;;;;;;46.15;22.88;;;;;;;5.13;71.78;95445.06;5123104;27;20031;-73
2021/11/24 03:40:13;;;;;;;43.15;21.63;;;;;;;5.28;71.70;95468.38;5130956;27;20146;-73
2021/11/24 03:42:44;;;;;;;39.58;21.17;;;;;;;5.26;71.50;95463.28;5130804;27;20023;-73
2021/11/24 03:45:10;;;;;;;45.72;24.23;;;;;;;5.24;71.75;95469.44;5129180;27;20039;-73
2021/11/24 03:47:35;;;;;;;47.42;23.13;;;;;;;5.23;71.69;95472.91;5111773;27;20500;-74
2021/11/24 03:50:01;;;;;;;44.75;22.55;;;;;;;5.25;71.74;95477.09;5121567;27;20039;-75
2021/11/24 03:52:26;;;;;;;44.70;22.58;;;;;;;5.27;71.63;95472.69;5106117;27;20404;-76
2021/11/24 03:54:52;;;;;;;45.00;23.27;;;;;;;5.25;71.48;95466.78;5125415;27;20039;-76
2021/11/24 03:57:17;;;;;;;46.70;22.25;;;;;;;5.24;71.56;95470.28;5106509;28;20618;-77
2021/11/24 03:59:43;;;;;;;44.88;22.75;;;;;;;5.27;71.55;95480.41;5122101;28;20039;-73
2021/11/24 04:02:08;;;;;;;43.35;22.60;;;;;;;5.26;71.70;95478.75;5104458;28;20590;-74
2021/11/24 04:04:33;;;;;;;45.50;22.52;;;;;;;5.26;71.35;95480.50;5108477;28;20315;-74
2021/11/24 04:07:01;;;;;;;44.97;22.42;;;;;;;5.28;71.42;95479.50;5108297;28;20039;-74
2021/11/24 04:09:26;;;;;;;40.38;20.48;;;;;;;5.29;71.23;95486.34;5110358;28;20503;-73
2021/11/24 04:11:52;;;;;;;44.20;22.75;;;;;;;5.28;71.32;95486.41;5108679;28;20046;-75
2021/11/24 04:14:17;;;;;;;39.88;20.20;;;;;;;5.29;71.02;95483.75;5110040;28;20035;-75
2021/11/24 04:16:43;;;;;;;51.90;30.38;;;;;;;5.31;71.26;95491.41;5109320;28;20024;-75
2021/11/24 04:19:08;;;;;;;59.00;34.20;;;;;;;5.26;71.28;95483.88;5109907;28;20040;-74
2021/11/24 04:21:34;;;;;;;54.88;29.20;;;;;;;5.25;71.50;95495.13;5110204;28;20481;-74
2021/11/24 04:23:59;;;;;;;49.58;25.92;;;;;;;5.28;71.62;95499.28;5124069;28;20042;-74
2021/11/24 04:26:25;;;;;;;46.85;25.10;;;;;;;5.29;71.61;95506.09;5111727;28;20051;-74
2021/11/24 04:28:50;;;;;;;68.30;34.72;;;;;;;5.27;71.45;95495.88;5110854;28;20027;-74
2021/11/24 04:31:16;;;;;;;50.28;24.20;;;;;;;5.29;71.48;95504.38;5129299;28;20492;-74
2021/11/24 04:33:41;;;;;;;47.28;26.33;;;;;;;5.28;71.52;95505.25;5091202;28;20050;-74
2021/11/24 04:36:07;;;;;;;49.92;24.67;;;;;;;5.29;71.52;95493.22;5108829;28;20039;-74
2021/11/24 04:38:33;;;;;;;45.90;23.52;;;;;;;5.33;71.26;95507.63;5127445;28;20063;-74
2021/11/24 04:40:58;;;;;;;42.58;21.60;;;;;;;5.29;71.66;95494.06;5125994;28;20031;-76
2021/11/24 04:43:28;;;;;;;41.05;21.65;;;;;;;5.32;71.42;95504.22;5107323;28;20043;-75
2021/11/24 04:45:54;;;;;;;43.63;23.45;;;;;;;5.12;71.84;95509.53;5111095;28;20436;-74
2021/11/24 04:48:20;;;;;;;44.22;22.15;;;;;;;5.20;71.73;95504.00;5108836;28;20027;-74
2021/11/24 04:50:45;;;;;;;36.47;18.30;;;;;;;5.22;71.68;95502.19;5108289;28;20106;-74
2021/11/24 04:53:11;;;;;;;45.03;23.77;;;;;;;5.24;71.75;95508.09;5117849;28;20031;-74
2021/11/24 04:55:37;;;;;;;41.10;21.27;;;;;;;5.26;71.90;95509.66;5128711;27;20035;-75
2021/11/24 04:58:02;;;;;;;46.13;23.25;;;;;;;5.22;71.82;95497.03;5129153;27;20039;-74
2021/11/24 05:00:28;;;;;;;52.40;26.42;;;;;;;5.24;71.83;95516.66;5129288;28;20031;-75
2021/11/24 05:02:53;;;;;;;44.58;23.13;;;;;;;5.31;71.83;95519.72;5132757;27;20027;-75
2021/11/24 05:05:21;;;;;;;46.28;22.40;;;;;;;5.29;71.74;95508.66;5111099;28;20519;-75
2021/11/24 05:07:46;;;;;;;47.38;23.58;;;;;;;5.36;71.45;95518.59;5095539;28;20058;-75
2021/11/24 05:10:12;;;;;;;45.80;24.33;;;;;;;5.36;71.67;95510.84;5112158;28;20415;-76
2021/11/24 05:12:37;;;;;;;54.42;27.08;;;;;;;5.37;71.49;95522.81;5076078;28;20031;-76
2021/11/24 05:15:04;;;;;;;47.28;24.17;;;;;;;5.37;71.74;95522.81;5095091;28;20031;-75
2021/11/24 05:17:31;;;;;;;43.70;22.48;;;;;;;5.37;71.65;95522.81;5129597;27;20109;-74
2021/11/24 05:19:56;;;;;;;46.83;24.88;;;;;;;5.38;71.76;95524.50;5115031;27;20063;-74
2021/11/24 05:22:22;;;;;;;42.72;23.45;;;;;;;5.36;71.60;95528.91;5133990;27;20026;-75
2021/11/24 05:24:48;;;;;;;42.55;21.50;;;;;;;5.33;71.47;95523.06;5132369;27;20035;-74
2021/11/24 05:27:14;;;;;;;44.10;23.63;;;;;;;5.36;71.56;95526.31;5116384;27;20092;-75
2021/11/24 05:29:40;;;;;;;49.53;24.83;;;;;;;5.41;71.53;95533.00;5133276;27;20031;-76
2021/11/24 05:32:06;;;;;;;46.88;24.23;;;;;;;5.39;71.44;95540.78;5132311;27;20023;-75
2021/11/24 05:34:32;;;;;;;40.72;21.33;;;;;;;5.39;71.56;95535.63;5132036;27;20110;-75
2021/11/24 05:36:57;;;;;;;43.03;21.85;;;;;;;5.35;71.56;95529.81;5121531;27;20023;-74
2021/11/24 05:39:22;;;;;;;41.40;21.83;;;;;;;5.36;71.67;95533.22;5114865;27;20031;-73
2021/11/24 05:41:48;;;;;;;38.40;20.00;;;;;;;5.41;71.53;95538.16;5132129;27;20027;-74
2021/11/24 05:44:25;;;;;;;43.85;22.77;;;;;;;5.37;71.77;95534.88;5127037;27;20089;-74
2021/11/24 05:46:57;;;;;;;43.53;23.05;;;;;;;5.40;71.44;95534.72;5080207;28;20038;-73
2021/11/24 05:49:23;;;;;;;53.35;26.30;;;;;;;5.33;71.55;95531.63;5111068;28;20030;-73
2021/11/24 05:51:48;;;;;;;47.70;23.50;;;;;;;5.34;71.58;95541.00;5095173;28;20027;-74
2021/11/24 05:54:14;;;;;;;45.30;23.02;;;;;;;5.27;71.72;95542.25;5126345;27;20041;-73
2021/11/24 05:56:39;;;;;;;46.10;22.52;;;;;;;5.29;72.12;95549.88;5127908;27;20031;-72
2021/11/24 05:59:09;;;;;;;43.35;21.88;;;;;;;5.28;72.21;95543.09;5118737;27;20034;-73
2021/11/24 06:01:35;;;;;;;40.85;21.40;;;;;;;5.36;71.96;95559.81;5129484;27;20031;-72
2021/11/24 06:04:01;;;;;;;37.78;19.67;;;;;;;5.39;72.08;95556.25;5117365;27;20035;-73
2021/11/24 06:06:26;;;;;;;36.95;19.23;;;;;;;5.43;72.06;95564.66;5111545;28;20027;-73
2021/11/24 06:08:52;;;;;;;42.15;22.52;;;;;;;5.47;72.38;95566.19;5111028;28;20108;-73
2021/11/24 06:11:17;;;;;;;41.13;20.98;;;;;;;5.47;71.97;95563.59;5109998;28;20020;-73
2021/11/24 06:13:43;;;;;;;45.65;23.30;;;;;;;5.47;71.95;95563.59;5077236;28;20547;-73
2021/11/24 06:16:08;;;;;;;42.83;21.65;;;;;;;5.50;72.03;95564.28;5106881;27;20197;-73
2021/11/24 06:18:34;;;;;;;40.80;21.25;;;;;;;5.54;71.99;95570.09;5111479;27;20030;-73
2021/11/24 06:20:59;;;;;;;43.03;22.30;;;;;;;5.56;71.88;95573.44;5132377;27;20042;-73
2021/11/24 06:23:25;;;;;;;38.92;19.73;;;;;;;5.50;71.59;95555.72;5109639;27;20032;-74
2021/11/24 06:25:50;;;;;;;44.60;22.02;;;;;;;5.59;71.51;95574.09;5112256;27;20035;-74
2021/11/24 06:28:15;;;;;;;45.10;22.05;;;;;;;5.52;71.48;95567.63;5094091;28;20027;-74
2021/11/24 06:30:41;;;;;;;41.72;21.45;;;;;;;5.56;71.39;95579.41;5111891;28;20032;-74
2021/11/24 06:33:07;;;;;;;41.75;20.65;;;;;;;5.55;71.32;95587.25;5111377;28;20032;-74
2021/11/24 06:35:32;;;;;;;40.40;21.75;;;;;;;5.61;71.13;95586.94;5111474;28;20066;-74
2021/11/24 06:37:57;;;;;;;41.22;20.92;;;;;;;5.61;71.32;95589.50;5111384;28;20023;-74
2021/11/24 06:40:23;;;;;;;42.30;21.20;;;;;;;5.59;71.23;95581.84;5111467;28;20027;-74
2021/11/24 06:42:48;;;;;;;38.33;19.48;;;;;;;5.69;71.31;95599.44;5111254;28;20039;-74
2021/11/24 06:45:14;;;;;;;38.95;18.98;;;;;;;5.67;71.20;95583.19;5111335;28;20431;-74
2021/11/24 06:47:40;;;;;;;39.60;20.88;;;;;;;5.66;71.41;95584.94;5077285;28;20426;-74
2021/11/24 06:50:06;;;;;;;39.13;19.92;;;;;;;5.77;71.30;95600.69;5094400;28;20047;-74
2021/11/24 06:52:32;;;;;;;40.45;19.40;;;;;;;5.78;71.21;95599.78;5094164;28;20427;-74
2021/11/24 06:54:57;;;;;;;38.15;19.70;;;;;;;5.85;70.92;95607.19;5077039;28;20023;-74
2021/11/24 06:57:23;;;;;;;40.97;21.00;;;;;;;5.90;71.21;95612.94;5110987;28;20100;-74
2021/11/24 06:59:48;;;;;;;39.83;19.70;;;;;;;5.92;70.83;95606.81;5123739;27;20088;-74
2021/11/24 07:02:14;;;;;;;42.38;22.02;;;;;;;5.94;70.79;95604.19;5131393;27;20495;-74
2021/11/24 07:04:39;;;;;;;46.20;23.00;;;;;;;5.95;70.79;95592.94;5114275;27;20066;-75
2021/11/24 07:07:04;;;;;;;51.15;23.60;;;;;;;5.80;70.67;95572.19;5131390;27;20027;-75
2021/11/24 07:09:30;;;;;;;45.63;24.40;;;;;;;5.95;70.45;95606.69;5114062;27;20092;-74
2021/11/24 07:11:55;;;;;;;50.05;24.13;;;;;;;5.97;70.86;95609.19;5114147;27;20039;-74
2021/11/24 07:14:21;;;;;;;47.92;24.30;;;;;;;6.00;70.55;95609.84;5113978;27;20039;-75
2021/11/24 07:16:46;;;;;;;46.50;25.05;;;;;;;6.04;70.43;95605.34;5113990;27;20507;-75
2021/11/24 07:19:12;;;;;;;44.13;22.83;;;;;;;6.04;70.27;95606.22;5091776;28;20040;-74
2021/11/24 07:21:37;;;;;;;46.17;23.95;;;;;;;6.06;70.31;95603.53;5121387;27;20027;-74
2021/11/24 07:24:03;;;;;;;55.30;27.13;;;;;;;5.89;70.11;95581.19;5130470;27;20039;-74
2021/11/24 07:26:28;;;;;;;52.70;23.73;;;;;;;6.07;70.03;95604.38;5130700;27;20037;-74
2021/11/24 07:28:54;;;;;;;57.40;28.58;;;;;;;6.08;69.61;95604.31;5126346;27;20042;-74
2021/11/24 07:31:19;;;;;;;54.13;25.75;;;;;;;6.12;69.71;95607.53;5131011;27;20015;-74
2021/11/24 07:33:45;;;;;;;46.17;23.70;;;;;;;6.06;69.92;95598.38;5119390;27;20031;-74
2021/11/24 07:36:10;;;;;;;42.58;22.80;;;;;;;6.12;69.83;95613.53;5110252;28;20024;-73
2021/11/24 07:38:35;;;;;;;47.65;23.80;;;;;;;6.14;69.88;95611.72;5111365;28;20081;-75
2021/11/24 07:41:01;;;;;;;46.08;24.95;;;;;;;6.16;69.93;95609.88;5110157;28;20031;-74
2021/11/24 07:43:26;;;;;;;50.90;24.48;;;;;;;6.15;70.10;95607.38;5111344;28;20019;-74
2021/11/24 07:45:52;;;;;;;43.50;23.23;;;;;;;6.20;69.84;95608.81;5093159;28;20035;-74
2021/11/24 07:48:18;;;;;;;49.20;24.17;;;;;;;6.07;69.97;95591.47;5110161;28;20500;-74
2021/11/24 07:50:43;;;;;;;46.00;25.10;;;;;;;6.16;70.15;95607.31;5093229;28;20469;-74
2021/11/24 07:53:08;;;;;;;46.38;24.70;;;;;;;6.23;70.15;95610.38;5093127;28;20131;-74
2021/11/24 07:55:34;;;;;;;44.55;23.98;;;;;;;6.25;70.04;95609.41;5110034;28;20421;-74
2021/11/24 07:57:59;;;;;;;50.22;23.27;;;;;;;6.23;69.81;95610.38;5109978;28;20111;-74
2021/11/24 08:00:25;;;;;;;51.03;24.48;;;;;;;6.27;70.15;95614.50;5093246;28;20477;-74
2021/11/24 08:02:50;;;;;;;48.90;23.98;;;;;;;6.29;70.17;95616.97;5109820;28;20413;-74
2021/11/24 08:05:16;;;;;;;49.25;24.92;;;;;;;6.30;70.34;95610.91;5113381;28;20512;-73
2021/11/24 08:07:42;;;;;;;48.03;23.48;;;;;;;6.22;69.65;95609.56;5095859;28;20424;-73
2021/11/24 08:10:10;;;;;;;41.33;21.48;;;;;;;6.17;70.15;95605.56;5110637;28;20066;-73
2021/11/24 08:12:36;;;;;;;51.17;23.80;;;;;;;6.12;69.94;95587.72;5113396;28;20080;-73
2021/11/24 08:15:01;;;;;;;44.38;24.27;;;;;;;6.25;69.97;95608.56;5113223;28;20064;-73
2021/11/24 08:17:26;;;;;;;53.80;26.38;;;;;;;6.31;70.15;95613.41;5113396;28;20031;-73
2021/11/24 08:19:52;;;;;;;49.13;25.08;;;;;;;6.35;70.32;95614.91;5131850;27;20394;-73
2021/11/24 08:22:17;;;;;;;52.35;27.85;;;;;;;6.35;70.52;95608.91;5124182;28;20143;-73
2021/11/24 08:24:43;;;;;;;55.72;27.35;;;;;;;6.20;70.59;95585.59;5085955;28;20492;-74
2021/11/24 08:27:09;;;;;;;47.92;24.75;;;;;;;6.38;70.54;95617.31;5092861;28;20195;-73
2021/11/24 08:29:34;;;;;;;53.30;28.45;;;;;;;6.36;70.25;95608.00;5117343;28;20027;-73
2021/11/24 08:32:03;;;;;;;50.50;25.95;;;;;;;6.39;70.31;95613.00;5112226;28;20035;-73
2021/11/24 08:34:28;;;;;;;49.38;24.92;;;;;;;6.37;70.27;95613.06;5129829;28;20035;-73
2021/11/24 08:36:54;;;;;;;55.13;27.27;;;;;;;6.41;70.23;95608.59;5131792;27;20503;-75
2021/11/24 08:39:19;;;;;;;57.45;27.88;;;;;;;6.46;70.18;95619.47;5134417;27;20485;-76
2021/11/24 08:41:46;;;;;;;59.55;27.95;;;;;;;6.31;70.56;95586.75;5111102;27;20149;-75
2021/11/24 08:44:11;;;;;;;55.53;28.50;;;;;;;6.44;70.74;95604.09;5132428;27;20480;-72
2021/11/24 08:46:37;;;;;;;59.22;30.25;;;;;;;6.47;70.75;95608.25;5103280;28;20030;-73
2021/11/24 08:49:03;;;;;;;56.55;30.05;;;;;;;6.49;70.75;95616.72;5116852;27;20576;-75
2021/11/24 08:51:29;;;;;;;53.67;28.50;;;;;;;6.36;70.56;95580.44;5131892;27;20015;-75
2021/11/24 08:53:54;;;;;;;58.30;30.77;;;;;;;6.59;70.14;95597.25;5113649;27;20511;-73
2021/11/24 08:56:20;;;;;;;63.58;33.70;;;;;;;6.61;69.98;95603.16;5126790;27;20063;-77
2021/11/24 08:58:45;;;;;;;64.00;32.00;;;;;;;6.74;70.12;95610.22;5130698;27;20027;-77
2021/11/24 09:01:11;;;;;;;62.08;31.35;;;;;;;6.77;70.10;95600.59;5130397;27;20027;-76
2021/11/24 09:03:36;;;;;;;51.90;27.98;;;;;;;6.82;70.15;95597.72;5124202;27;20026;-77
2021/11/24 09:06:03;;;;;;;61.10;31.92;;;;;;;6.93;70.06;95608.28;5113214;28;20043;-76
2021/11/24 09:08:29;;;;;;;54.55;28.35;;;;;;;6.93;70.01;95605.72;5114025;27;20489;-75
2021/11/24 09:10:55;;;;;;;51.35;26.17;;;;;;;6.99;69.88;95601.94;5125303;27;20031;-76
2021/11/24 09:13:20;;;;;;;47.85;26.80;;;;;;;7.02;69.53;95594.88;5117650;27;20027;-77
2021/11/24 09:15:46;;;;;;;52.08;26.42;;;;;;;6.97;69.34;95602.06;5113412;28;20046;-74
2021/11/24 09:18:11;;;;;;;50.13;26.55;;;;;;;7.04;68.89;95598.19;5125997;27;20035;-78
2021/11/24 09:20:37;;;;;;;43.88;21.75;;;;;;;6.94;68.69;95582.38;5131127;27;20050;-75
2021/11/24 09:23:03;;;;;;;40.13;21.92;;;;;;;6.98;68.71;95602.88;5115253;27;20059;-74
2021/11/24 09:25:49;;;;;;;32.13;16.95;;;;;;;6.90;68.42;95606.72;5127646;27;20034;-74
2021/11/24 09:28:18;;;;;;;34.35;17.58;;;;;;;6.65;68.60;95565.09;5118845;27;20027;-74
2021/11/24 09:30:44;;;;;;;31.25;16.73;;;;;;;6.65;69.18;95601.25;5133945;27;20027;-73
2021/11/24 09:33:09;;;;;;;33.45;16.45;;;;;;;6.48;69.55;95579.75;5135092;27;20412;-74
2021/11/24 09:35:35;;;;;;;30.70;16.67;;;;;;;6.36;70.16;95587.34;5133869;27;20035;-73
2021/11/24 09:38:01;;;;;;;32.55;17.13;;;;;;;6.36;70.13;95582.19;5133417;27;20038;-74
2021/11/24 09:40:27;;;;;;;33.28;16.40;;;;;;;6.38;70.53;95591.53;5135259;27;20486;-73
2021/11/24 09:42:56;;;;;;;37.40;18.83;;;;;;;6.40;70.74;95591.41;5116399;27;20109;-74
2021/11/24 09:45:22;;;;;;;42.33;22.13;;;;;;;6.44;70.72;95590.34;5132730;27;20037;-74
2021/11/24 09:47:47;;;;;;;51.58;27.35;;;;;;;6.34;71.12;95576.28;5109774;27;20027;-74
2021/11/24 09:50:14;;;;;;;40.30;20.63;;;;;;;6.45;71.13;95587.69;5113054;28;20039;-74
2021/11/24 09:52:42;;;;;;;37.65;18.92;;;;;;;6.48;70.92;95591.84;5114031;28;20405;-75
2021/11/24 09:55:07;;;;;;;44.22;21.58;;;;;;;6.40;71.42;95571.59;5096307;28;20031;-73
2021/11/24 09:57:33;;;;;;;38.58;20.40;;;;;;;6.47;71.12;95583.28;5095416;28;20535;-73
2021/11/24 09:59:58;;;;;;;34.33;18.45;;;;;;;6.24;71.69;95575.91;5114221;28;20027;-74
2021/11/24 10:02:24;;;;;;;38.95;19.70;;;;;;;6.16;72.50;95572.94;5112811;28;20043;-74
2021/11/24 10:04:50;;;;;;;41.45;20.60;;;;;;;6.09;72.79;95562.09;5095377;28;20117;-74
2021/11/24 10:07:16;;;;;;;36.60;19.60;;;;;;;6.14;72.59;95570.44;5112394;28;20056;-74
2021/11/24 10:09:42;;;;;;;38.35;19.30;;;;;;;6.16;72.46;95576.34;5112601;28;20058;-73
2021/11/24 10:12:08;;;;;;;39.78;19.92;;;;;;;6.16;72.74;95578.09;5078619;28;20024;-74
2021/11/24 10:14:34;;;;;;;41.05;20.67;;;;;;;6.02;73.07;95558.19;5112454;28;20092;-74
2021/11/24 10:17:10;;;;;;;43.13;18.98;;;;;;;6.13;72.99;95560.19;5112416;28;20057;-73
2021/11/24 10:19:36;;;;;;;37.60;18.98;;;;;;;6.12;72.75;95564.50;5095802;28;20056;-74
2021/11/24 10:22:06;;;;;;;44.03;21.67;;;;;;;6.11;73.33;95565.44;5095358;28;20410;-74
2021/11/24 10:24:38;;;;;;;43.92;22.58;;;;;;;6.03;73.63;95557.28;5095378;28;20058;-74
2021/11/24 10:27:09;;;;;;;48.22;21.98;;;;;;;6.02;73.40;95563.34;5112262;28;20015;-74
2021/11/24 10:29:35;;;;;;;49.43;23.30;;;;;;;6.00;73.70;95562.59;5095252;28;20039;-74
2021/11/24 10:32:05;;;;;;;46.28;22.92;;;;;;;5.94;73.35;95555.19;5112012;28;20309;-74
2021/11/24 10:34:33;;;;;;;47.38;23.40;;;;;;;5.92;73.70;95556.97;5112005;28;20111;-74
2021/11/24 10:37:07;;;;;;;51.35;24.80;;;;;;;5.87;73.75;95552.06;5095098;28;20042;-74
2021/11/24 10:39:39;;;;;;;50.33;24.13;;;;;;;5.92;74.07;95550.06;5112006;28;20032;-74
2021/11/24 10:42:08;;;;;;;49.00;25.85;;;;;;;5.92;73.69;95552.66;5115487;27;20031;-74
2021/11/24 10:44:34;;;;;;;50.28;24.40;;;;;;;5.93;73.85;95556.06;5118811;27;20046;-74
2021/11/24 10:47:00;;;;;;;46.65;22.92;;;;;;;6.00;73.70;95542.78;5114026;27;20404;-73
2021/11/24 10:49:44;;;;;;;49.97;24.98;;;;;;;5.90;73.70;95531.25;5130939;27;20027;-75
2021/11/24 10:52:35;;;;;;;51.25;25.00;;;;;;;5.93;74.11;95545.72;5132538;27;20034;-74
2021/11/24 10:55:06;;;;;;;51.55;23.67;;;;;;;5.92;74.18;95538.94;5128544;27;20051;-74
2021/11/24 10:57:32;;;;;;;;;;;;;;;5.86;74.65;95536.69;5132845;27;20046;-74
2021/11/24 11:00:04;;;;;;;51.70;24.02;;;;;;;5.78;74.71;95532.75;5131446;27;19919;-74
2021/11/24 11:02:33;;;;;;;50.58;24.92;;;;;;;5.87;74.87;95530.59;5115630;27;20055;-74
2021/11/24 11:05:25;;;;;;;52.20;24.30;;;;;;;5.97;74.63;95529.22;5131860;27;20573;-74
2021/11/24 11:07:50;;;;;;;52.85;23.55;;;;;;;6.01;74.62;95530.72;5130980;27;20134;-74
2021/11/24 11:10:30;;;;;;;35.67;19.40;;;;;;;5.98;74.70;95521.41;5133494;27;20110;-74
2021/11/24 11:13:20;;;;;;;27.45;18.33;;;;;;;6.12;73.88;95520.66;5133062;27;20484;-74
2021/11/24 11:15:47;;;;;;;23.88;14.50;;;;;;;6.22;73.50;95518.44;5117024;27;20077;-74
2021/11/24 11:18:17;;;;;;;18.10;11.70;;;;;;;6.36;72.35;95520.25;5131418;27;20484;-74
2021/11/24 11:20:54;;;;;;;17.23;10.90;;;;;;;6.51;71.12;95521.97;5131922;27;20039;-74
2021/11/24 11:23:28;;;;;;;17.70;11.60;;;;;;;6.51;70.32;95506.47;5131603;27;20039;-73